gordon.dewis.ca - Random musings from Gordon

Subscribe

Last practice before the Ottawa Dragon Boat Festival

June 24, 2015 @ 16:23 By: gordon Category: Dragonboats, Weather

Both of the teams I’m steering for at the Ottawa Dragon Boat Festival have their final practices this evening, so naturally the weather is shaping up to be a little more exciting that necessary:

TAF CYOW 241740Z 2418/2518 27010G20KT P6SM FEW060
FM241900 29012KT P6SM BKN050 TEMPO 2420/2424 P6SM -SHRA PROB30
2420/2423 21/2SM TSRA BR BKN020 OVC040CB
FM250200 31008KT P6SM FEW050
BECMG 2504/2506 VRB03KT
FM251500 33007KT P6SM SCT050 BKN120
RMK NXT FCST BY 242100Z=

Hopefully, the 30% chance of moderate thunderstorms will not interrupt the light rain showers (which, frankly, I could do without).

Leave a Reply

CAPTCHA
*